sensor_id;sensor_type;location;lat;lon;timestamp;P1;durP1;ratioP1;P2;durP2;ratioP2
65405;SDS011;52016;51.228;-2.322;2022-09-25T00:01:03;9.90;;;1.98;;
65405;SDS011;52016;51.228;-2.322;2022-09-25T00:04:46;4.22;;;1.70;;
65405;SDS011;52016;51.228;-2.322;2022-09-25T00:08:28;5.30;;;1.90;;
65405;SDS011;52016;51.228;-2.322;2022-09-25T00:12:10;5.05;;;1.80;;
65405;SDS011;52016;51.228;-2.322;2022-09-25T00:15:54;4.93;;;1.60;;
65405;SDS011;52016;51.228;-2.322;2022-09-25T00:19:37;4.53;;;1.63;;
65405;SDS011;52016;51.228;-2.322;2022-09-25T00:23:31;5.20;;;1.60;;
65405;SDS011;52016;51.228;-2.322;2022-09-25T00:27:15;4.82;;;1.90;;
65405;SDS011;52016;51.228;-2.322;2022-09-25T00:30:57;3.85;;;2.00;;
65405;SDS011;52016;51.228;-2.322;2022-09-25T00:34:39;3.00;;;1.48;;
65405;SDS011;52016;51.228;-2.322;2022-09-25T00:38:21;5.13;;;1.70;;
65405;SDS011;52016;51.228;-2.322;2022-09-25T00:42:03;6.32;;;1.70;;
65405;SDS011;52016;51.228;-2.322;2022-09-25T00:45:44;5.82;;;2.03;;
65405;SDS011;52016;51.228;-2.322;2022-09-25T00:49:26;6.60;;;1.70;;
65405;SDS011;52016;51.228;-2.322;2022-09-25T00:53:10;6.35;;;1.90;;
65405;SDS011;52016;51.228;-2.322;2022-09-25T00:56:55;3.67;;;1.70;;
65405;SDS011;52016;51.228;-2.322;2022-09-25T01:00:38;3.53;;;1.60;;
65405;SDS011;52016;51.228;-2.322;2022-09-25T01:04:21;5.82;;;1.83;;
65405;SDS011;52016;51.228;-2.322;2022-09-25T01:08:03;3.72;;;1.80;;
65405;SDS011;52016;51.228;-2.322;2022-09-25T01:11:48;3.97;;;1.80;;
65405;SDS011;52016;51.228;-2.322;2022-09-25T01:15:42;7.13;;;1.70;;
65405;SDS011;52016;51.228;-2.322;2022-09-25T01:31:35;3.45;;;1.60;;
65405;SDS011;52016;51.228;-2.322;2022-09-25T01:36:10;6.05;;;2.00;;
65405;SDS011;52016;51.228;-2.322;2022-09-25T01:40:06;4.45;;;2.30;;
65405;SDS011;52016;51.228;-2.322;2022-09-25T01:44:01;6.80;;;1.90;;
65405;SDS011;52016;51.228;-2.322;2022-09-25T01:47:50;6.15;;;2.15;;
65405;SDS011;52016;51.228;-2.322;2022-09-25T01:51:38;5.28;;;2.25;;
65405;SDS011;52016;51.228;-2.322;2022-09-25T01:55:29;4.15;;;1.75;;
65405;SDS011;52016;51.228;-2.322;2022-09-25T02:03:14;7.35;;;2.33;;
65405;SDS011;52016;51.228;-2.322;2022-09-25T02:10:53;4.32;;;1.83;;
65405;SDS011;52016;51.228;-2.322;2022-09-25T02:14:42;6.63;;;2.10;;
65405;SDS011;52016;51.228;-2.322;2022-09-25T02:18:30;7.68;;;2.05;;
65405;SDS011;52016;51.228;-2.322;2022-09-25T02:22:44;5.93;;;1.90;;
65405;SDS011;52016;51.228;-2.322;2022-09-25T02:26:29;5.07;;;2.05;;
65405;SDS011;52016;51.228;-2.322;2022-09-25T02:30:12;3.78;;;1.90;;
65405;SDS011;52016;51.228;-2.322;2022-09-25T02:33:54;4.88;;;2.10;;
65405;SDS011;52016;51.228;-2.322;2022-09-25T02:37:36;5.13;;;1.85;;
65405;SDS011;52016;51.228;-2.322;2022-09-25T02:53:34;6.07;;;2.13;;
65405;SDS011;52016;51.228;-2.322;2022-09-25T02:57:35;5.20;;;2.15;;
65405;SDS011;52016;51.228;-2.322;2022-09-25T03:01:25;5.85;;;2.20;;
65405;SDS011;52016;51.228;-2.322;2022-09-25T03:05:10;4.47;;;2.10;;
65405;SDS011;52016;51.228;-2.322;2022-09-25T03:08:54;8.55;;;2.08;;
65405;SDS011;52016;51.228;-2.322;2022-09-25T03:12:38;9.57;;;2.00;;
65405;SDS011;52016;51.228;-2.322;2022-09-25T03:16:24;5.38;;;2.10;;
65405;SDS011;52016;51.228;-2.322;2022-09-25T03:20:26;6.80;;;2.35;;
65405;SDS011;52016;51.228;-2.322;2022-09-25T03:24:08;9.15;;;2.65;;
65405;SDS011;52016;51.228;-2.322;2022-09-25T03:27:50;10.77;;;2.10;;
65405;SDS011;52016;51.228;-2.322;2022-09-25T03:31:32;6.18;;;2.22;;
65405;SDS011;52016;51.228;-2.322;2022-09-25T03:35:14;6.68;;;2.22;;
65405;SDS011;52016;51.228;-2.322;2022-09-25T03:38:56;5.90;;;2.30;;
65405;SDS011;52016;51.228;-2.322;2022-09-25T03:42:39;8.05;;;2.20;;
65405;SDS011;52016;51.228;-2.322;2022-09-25T03:46:22;3.65;;;1.88;;
65405;SDS011;52016;51.228;-2.322;2022-09-25T03:50:12;4.45;;;2.40;;
65405;SDS011;52016;51.228;-2.322;2022-09-25T03:53:53;14.43;;;2.88;;
65405;SDS011;52016;51.228;-2.322;2022-09-25T03:57:35;11.48;;;3.13;;
65405;SDS011;52016;51.228;-2.322;2022-09-25T04:01:17;8.95;;;2.78;;
65405;SDS011;52016;51.228;-2.322;2022-09-25T04:04:59;9.75;;;2.47;;
65405;SDS011;52016;51.228;-2.322;2022-09-25T04:08:44;6.57;;;2.67;;
65405;SDS011;52016;51.228;-2.322;2022-09-25T04:12:27;14.85;;;3.63;;
65405;SDS011;52016;51.228;-2.322;2022-09-25T04:16:09;9.48;;;3.25;;
65405;SDS011;52016;51.228;-2.322;2022-09-25T04:19:52;7.63;;;2.38;;
65405;SDS011;52016;51.228;-2.322;2022-09-25T04:23:34;13.15;;;2.67;;
65405;SDS011;52016;51.228;-2.322;2022-09-25T04:27:18;5.90;;;2.40;;
65405;SDS011;52016;51.228;-2.322;2022-09-25T04:31:01;8.55;;;2.20;;
65405;SDS011;52016;51.228;-2.322;2022-09-25T04:34:44;5.18;;;2.50;;
65405;SDS011;52016;51.228;-2.322;2022-09-25T04:38:26;8.80;;;2.45;;
65405;SDS011;52016;51.228;-2.322;2022-09-25T04:42:08;7.82;;;2.53;;
65405;SDS011;52016;51.228;-2.322;2022-09-25T04:45:50;16.42;;;3.10;;
65405;SDS011;52016;51.228;-2.322;2022-09-25T04:49:32;6.28;;;2.78;;
65405;SDS011;52016;51.228;-2.322;2022-09-25T04:53:14;6.55;;;2.42;;
65405;SDS011;52016;51.228;-2.322;2022-09-25T04:56:56;12.35;;;2.30;;
65405;SDS011;52016;51.228;-2.322;2022-09-25T05:00:38;4.13;;;2.13;;
65405;SDS011;52016;51.228;-2.322;2022-09-25T05:04:21;5.28;;;2.33;;
65405;SDS011;52016;51.228;-2.322;2022-09-25T05:08:03;6.10;;;2.50;;
65405;SDS011;52016;51.228;-2.322;2022-09-25T05:11:45;9.48;;;2.20;;
65405;SDS011;52016;51.228;-2.322;2022-09-25T05:15:28;9.65;;;2.42;;
65405;SDS011;52016;51.228;-2.322;2022-09-25T05:19:11;6.25;;;2.30;;
65405;SDS011;52016;51.228;-2.322;2022-09-25T05:22:55;6.28;;;2.78;;
65405;SDS011;52016;51.228;-2.322;2022-09-25T05:26:38;7.85;;;2.60;;
65405;SDS011;52016;51.228;-2.322;2022-09-25T05:30:21;7.03;;;2.70;;
65405;SDS011;52016;51.228;-2.322;2022-09-25T05:34:03;5.45;;;2.40;;
65405;SDS011;52016;51.228;-2.322;2022-09-25T05:37:45;9.00;;;2.55;;
65405;SDS011;52016;51.228;-2.322;2022-09-25T05:41:27;10.15;;;2.80;;
65405;SDS011;52016;51.228;-2.322;2022-09-25T05:45:10;5.88;;;2.50;;
65405;SDS011;52016;51.228;-2.322;2022-09-25T05:48:52;6.20;;;2.70;;
65405;SDS011;52016;51.228;-2.322;2022-09-25T05:52:35;10.15;;;2.97;;
65405;SDS011;52016;51.228;-2.322;2022-09-25T05:56:17;3.67;;;2.20;;
65405;SDS011;52016;51.228;-2.322;2022-09-25T05:59:58;9.70;;;2.90;;
65405;SDS011;52016;51.228;-2.322;2022-09-25T06:03:41;5.07;;;2.90;;
65405;SDS011;52016;51.228;-2.322;2022-09-25T06:07:23;7.10;;;3.03;;
65405;SDS011;52016;51.228;-2.322;2022-09-25T06:11:05;13.45;;;3.22;;
65405;SDS011;52016;51.228;-2.322;2022-09-25T06:14:48;14.48;;;3.00;;
65405;SDS011;52016;51.228;-2.322;2022-09-25T06:18:29;9.63;;;2.40;;
65405;SDS011;52016;51.228;-2.322;2022-09-25T06:22:12;7.28;;;2.30;;
65405;SDS011;52016;51.228;-2.322;2022-09-25T06:25:54;4.80;;;2.50;;
65405;SDS011;52016;51.228;-2.322;2022-09-25T06:29:43;8.57;;;2.35;;
65405;SDS011;52016;51.228;-2.322;2022-09-25T06:33:25;5.18;;;2.65;;
65405;SDS011;52016;51.228;-2.322;2022-09-25T06:37:07;8.45;;;2.30;;
65405;SDS011;52016;51.228;-2.322;2022-09-25T06:40:48;9.23;;;2.70;;
65405;SDS011;52016;51.228;-2.322;2022-09-25T06:44:30;8.57;;;2.80;;
65405;SDS011;52016;51.228;-2.322;2022-09-25T06:48:13;5.75;;;2.75;;
65405;SDS011;52016;51.228;-2.322;2022-09-25T06:51:56;10.18;;;3.15;;
65405;SDS011;52016;51.228;-2.322;2022-09-25T06:55:38;17.20;;;4.13;;
65405;SDS011;52016;51.228;-2.322;2022-09-25T06:59:20;8.40;;;3.88;;
65405;SDS011;52016;51.228;-2.322;2022-09-25T07:03:02;10.55;;;3.92;;
65405;SDS011;52016;51.228;-2.322;2022-09-25T07:07:02;8.52;;;3.53;;
65405;SDS011;52016;51.228;-2.322;2022-09-25T07:10:48;9.73;;;3.95;;
65405;SDS011;52016;51.228;-2.322;2022-09-25T07:14:30;8.20;;;3.03;;
65405;SDS011;52016;51.228;-2.322;2022-09-25T07:18:13;6.68;;;3.00;;
65405;SDS011;52016;51.228;-2.322;2022-09-25T07:21:55;9.80;;;3.25;;
65405;SDS011;52016;51.228;-2.322;2022-09-25T07:25:37;8.95;;;3.10;;
65405;SDS011;52016;51.228;-2.322;2022-09-25T07:29:19;7.88;;;3.33;;
65405;SDS011;52016;51.228;-2.322;2022-09-25T07:33:01;15.25;;;3.50;;
65405;SDS011;52016;51.228;-2.322;2022-09-25T07:36:42;12.38;;;3.58;;
65405;SDS011;52016;51.228;-2.322;2022-09-25T07:40:24;12.70;;;3.53;;
65405;SDS011;52016;51.228;-2.322;2022-09-25T07:44:09;6.63;;;2.90;;
65405;SDS011;52016;51.228;-2.322;2022-09-25T07:48:09;10.15;;;3.10;;
65405;SDS011;52016;51.228;-2.322;2022-09-25T07:51:51;7.45;;;3.22;;
65405;SDS011;52016;51.228;-2.322;2022-09-25T07:55:33;9.32;;;2.85;;
65405;SDS011;52016;51.228;-2.322;2022-09-25T07:59:14;10.73;;;3.28;;
65405;SDS011;52016;51.228;-2.322;2022-09-25T08:02:57;8.55;;;2.92;;
65405;SDS011;52016;51.228;-2.322;2022-09-25T08:06:39;8.68;;;2.85;;
65405;SDS011;52016;51.228;-2.322;2022-09-25T08:10:21;5.25;;;2.47;;
65405;SDS011;52016;51.228;-2.322;2022-09-25T08:14:03;11.90;;;3.28;;
65405;SDS011;52016;51.228;-2.322;2022-09-25T08:17:45;9.63;;;2.53;;
65405;SDS011;52016;51.228;-2.322;2022-09-25T08:21:27;8.75;;;3.15;;
65405;SDS011;52016;51.228;-2.322;2022-09-25T08:25:09;7.95;;;2.70;;
65405;SDS011;52016;51.228;-2.322;2022-09-25T08:28:51;5.00;;;2.97;;
65405;SDS011;52016;51.228;-2.322;2022-09-25T08:32:33;8.23;;;3.00;;
65405;SDS011;52016;51.228;-2.322;2022-09-25T08:36:15;12.23;;;2.88;;
65405;SDS011;52016;51.228;-2.322;2022-09-25T08:39:58;6.72;;;2.55;;
65405;SDS011;52016;51.228;-2.322;2022-09-25T08:43:41;5.28;;;2.63;;
65405;SDS011;52016;51.228;-2.322;2022-09-25T08:47:27;5.90;;;2.25;;
65405;SDS011;52016;51.228;-2.322;2022-09-25T08:51:29;6.05;;;2.28;;
65405;SDS011;52016;51.228;-2.322;2022-09-25T08:55:13;11.52;;;2.38;;
65405;SDS011;52016;51.228;-2.322;2022-09-25T09:03:08;5.03;;;2.17;;
65405;SDS011;52016;51.228;-2.322;2022-09-25T09:06:54;7.38;;;2.30;;
65405;SDS011;52016;51.228;-2.322;2022-09-25T09:11:06;4.47;;;2.20;;
65405;SDS011;52016;51.228;-2.322;2022-09-25T09:14:57;6.03;;;2.60;;
65405;SDS011;52016;51.228;-2.322;2022-09-25T09:18:56;5.78;;;2.30;;
65405;SDS011;52016;51.228;-2.322;2022-09-25T09:22:49;9.15;;;2.50;;
65405;SDS011;52016;51.228;-2.322;2022-09-25T09:31:01;5.30;;;2.25;;
65405;SDS011;52016;51.228;-2.322;2022-09-25T09:51:21;4.20;;;1.63;;
65405;SDS011;52016;51.228;-2.322;2022-09-25T09:55:18;4.57;;;2.00;;
65405;SDS011;52016;51.228;-2.322;2022-09-25T09:59:21;5.88;;;2.10;;
65405;SDS011;52016;51.228;-2.322;2022-09-25T10:03:14;10.68;;;2.00;;
65405;SDS011;52016;51.228;-2.322;2022-09-25T10:07:04;5.93;;;1.80;;
65405;SDS011;52016;51.228;-2.322;2022-09-25T10:10:52;3.00;;;1.50;;
65405;SDS011;52016;51.228;-2.322;2022-09-25T10:14:37;4.50;;;1.33;;
65405;SDS011;52016;51.228;-2.322;2022-09-25T10:18:23;7.13;;;1.63;;
65405;SDS011;52016;51.228;-2.322;2022-09-25T10:22:11;7.85;;;1.40;;
65405;SDS011;52016;51.228;-2.322;2022-09-25T10:29:39;4.25;;;1.63;;
65405;SDS011;52016;51.228;-2.322;2022-09-25T10:33:21;7.78;;;2.05;;
65405;SDS011;52016;51.228;-2.322;2022-09-25T10:37:14;3.53;;;1.55;;
65405;SDS011;52016;51.228;-2.322;2022-09-25T10:41:04;2.05;;;1.10;;
65405;SDS011;52016;51.228;-2.322;2022-09-25T10:44:48;3.20;;;1.45;;
65405;SDS011;52016;51.228;-2.322;2022-09-25T10:48:38;6.68;;;2.10;;
65405;SDS011;52016;51.228;-2.322;2022-09-25T10:56:31;2.38;;;1.10;;
65405;SDS011;52016;51.228;-2.322;2022-09-25T11:00:23;2.13;;;1.00;;
65405;SDS011;52016;51.228;-2.322;2022-09-25T11:04:25;5.78;;;1.80;;
65405;SDS011;52016;51.228;-2.322;2022-09-25T11:08:11;3.72;;;1.15;;
65405;SDS011;52016;51.228;-2.322;2022-09-25T11:12:06;4.55;;;1.58;;
65405;SDS011;52016;51.228;-2.322;2022-09-25T11:15:59;1.48;;;1.27;;
65405;SDS011;52016;51.228;-2.322;2022-09-25T11:19:41;4.63;;;1.30;;
65405;SDS011;52016;51.228;-2.322;2022-09-25T11:23:27;6.00;;;1.27;;
65405;SDS011;52016;51.228;-2.322;2022-09-25T11:31:25;3.17;;;1.35;;
65405;SDS011;52016;51.228;-2.322;2022-09-25T11:35:26;2.05;;;1.08;;
65405;SDS011;52016;51.228;-2.322;2022-09-25T11:39:21;1.58;;;1.00;;
65405;SDS011;52016;51.228;-2.322;2022-09-25T11:59:22;2.15;;;1.00;;
65405;SDS011;52016;51.228;-2.322;2022-09-25T12:07:18;4.82;;;1.10;;
65405;SDS011;52016;51.228;-2.322;2022-09-25T12:23:54;3.55;;;1.20;;
65405;SDS011;52016;51.228;-2.322;2022-09-25T12:36:13;5.90;;;0.93;;
65405;SDS011;52016;51.228;-2.322;2022-09-25T12:40:02;1.90;;;1.00;;
65405;SDS011;52016;51.228;-2.322;2022-09-25T12:43:54;0.98;;;0.80;;
65405;SDS011;52016;51.228;-2.322;2022-09-25T12:48:17;1.55;;;0.88;;
65405;SDS011;52016;51.228;-2.322;2022-09-25T12:52:02;0.98;;;0.70;;
65405;SDS011;52016;51.228;-2.322;2022-09-25T12:55:59;2.35;;;1.00;;
65405;SDS011;52016;51.228;-2.322;2022-09-25T12:59:59;1.52;;;0.75;;
65405;SDS011;52016;51.228;-2.322;2022-09-25T13:12:08;3.53;;;1.13;;
65405;SDS011;52016;51.228;-2.322;2022-09-25T13:16:01;1.15;;;0.80;;
65405;SDS011;52016;51.228;-2.322;2022-09-25T13:19:43;1.50;;;1.10;;
65405;SDS011;52016;51.228;-2.322;2022-09-25T13:27:13;2.40;;;1.00;;
65405;SDS011;52016;51.228;-2.322;2022-09-25T13:31:11;1.35;;;0.98;;
65405;SDS011;52016;51.228;-2.322;2022-09-25T13:35:11;4.47;;;1.20;;
65405;SDS011;52016;51.228;-2.322;2022-09-25T13:39:01;1.63;;;1.05;;
65405;SDS011;52016;51.228;-2.322;2022-09-25T13:43:24;2.15;;;1.10;;
65405;SDS011;52016;51.228;-2.322;2022-09-25T13:59:01;4.30;;;1.58;;
65405;SDS011;52016;51.228;-2.322;2022-09-25T14:02:57;3.00;;;1.40;;
65405;SDS011;52016;51.228;-2.322;2022-09-25T14:06:46;2.45;;;1.30;;
65405;SDS011;52016;51.228;-2.322;2022-09-25T14:10:31;1.83;;;1.50;;
65405;SDS011;52016;51.228;-2.322;2022-09-25T14:14:16;5.28;;;1.50;;
65405;SDS011;52016;51.228;-2.322;2022-09-25T14:18:18;2.00;;;1.30;;
65405;SDS011;52016;51.228;-2.322;2022-09-25T14:22:06;3.13;;;1.63;;
65405;SDS011;52016;51.228;-2.322;2022-09-25T14:26:02;3.17;;;1.35;;
65405;SDS011;52016;51.228;-2.322;2022-09-25T14:29:47;2.35;;;1.25;;
65405;SDS011;52016;51.228;-2.322;2022-09-25T14:33:36;2.22;;;1.20;;
65405;SDS011;52016;51.228;-2.322;2022-09-25T14:41:49;2.50;;;1.20;;
65405;SDS011;52016;51.228;-2.322;2022-09-25T14:49:38;3.90;;;1.10;;
65405;SDS011;52016;51.228;-2.322;2022-09-25T14:53:28;5.78;;;1.35;;
65405;SDS011;52016;51.228;-2.322;2022-09-25T14:57:16;3.63;;;1.27;;
65405;SDS011;52016;51.228;-2.322;2022-09-25T15:01:27;3.88;;;1.15;;
65405;SDS011;52016;51.228;-2.322;2022-09-25T15:13:15;6.35;;;1.10;;
65405;SDS011;52016;51.228;-2.322;2022-09-25T15:16:58;6.28;;;1.48;;
65405;SDS011;52016;51.228;-2.322;2022-09-25T15:25:04;4.60;;;1.50;;
65405;SDS011;52016;51.228;-2.322;2022-09-25T15:28:48;4.32;;;1.10;;
65405;SDS011;52016;51.228;-2.322;2022-09-25T15:32:35;2.83;;;1.35;;
65405;SDS011;52016;51.228;-2.322;2022-09-25T15:44:10;4.03;;;1.92;;
65405;SDS011;52016;51.228;-2.322;2022-09-25T15:48:09;2.70;;;1.48;;
65405;SDS011;52016;51.228;-2.322;2022-09-25T15:51:58;2.70;;;1.65;;
65405;SDS011;52016;51.228;-2.322;2022-09-25T15:55:42;5.32;;;1.67;;
65405;SDS011;52016;51.228;-2.322;2022-09-25T15:59:30;4.32;;;1.70;;
65405;SDS011;52016;51.228;-2.322;2022-09-25T16:03:18;6.32;;;1.70;;
65405;SDS011;52016;51.228;-2.322;2022-09-25T16:07:29;4.28;;;1.60;;
65405;SDS011;52016;51.228;-2.322;2022-09-25T16:11:20;6.18;;;1.60;;
65405;SDS011;52016;51.228;-2.322;2022-09-25T16:19:25;9.20;;;2.10;;
65405;SDS011;52016;51.228;-2.322;2022-09-25T16:23:23;7.85;;;2.08;;
65405;SDS011;52016;51.228;-2.322;2022-09-25T16:27:16;4.63;;;1.40;;
65405;SDS011;52016;51.228;-2.322;2022-09-25T16:31:12;4.38;;;1.60;;
65405;SDS011;52016;51.228;-2.322;2022-09-25T16:34:56;5.97;;;1.33;;
65405;SDS011;52016;51.228;-2.322;2022-09-25T16:38:40;5.75;;;1.45;;
65405;SDS011;52016;51.228;-2.322;2022-09-25T16:42:29;2.53;;;1.40;;
65405;SDS011;52016;51.228;-2.322;2022-09-25T16:46:19;2.95;;;1.50;;
65405;SDS011;52016;51.228;-2.322;2022-09-25T16:50:03;4.47;;;1.80;;
65405;SDS011;52016;51.228;-2.322;2022-09-25T16:53:45;5.93;;;1.45;;
65405;SDS011;52016;51.228;-2.322;2022-09-25T16:57:30;4.07;;;1.42;;
65405;SDS011;52016;51.228;-2.322;2022-09-25T17:01:12;11.15;;;1.83;;
65405;SDS011;52016;51.228;-2.322;2022-09-25T17:04:54;5.82;;;1.95;;
65405;SDS011;52016;51.228;-2.322;2022-09-25T17:08:36;5.57;;;1.50;;
65405;SDS011;52016;51.228;-2.322;2022-09-25T17:12:18;4.55;;;1.50;;
65405;SDS011;52016;51.228;-2.322;2022-09-25T17:16:02;8.82;;;1.90;;
65405;SDS011;52016;51.228;-2.322;2022-09-25T17:19:45;4.20;;;1.50;;
65405;SDS011;52016;51.228;-2.322;2022-09-25T17:23:27;3.78;;;1.40;;
65405;SDS011;52016;51.228;-2.322;2022-09-25T17:27:12;5.00;;;1.40;;
65405;SDS011;52016;51.228;-2.322;2022-09-25T17:30:55;3.25;;;1.48;;
65405;SDS011;52016;51.228;-2.322;2022-09-25T17:34:38;2.78;;;1.30;;
65405;SDS011;52016;51.228;-2.322;2022-09-25T17:38:20;6.00;;;1.45;;
65405;SDS011;52016;51.228;-2.322;2022-09-25T17:42:02;2.38;;;1.05;;
65405;SDS011;52016;51.228;-2.322;2022-09-25T17:45:54;4.53;;;1.73;;
65405;SDS011;52016;51.228;-2.322;2022-09-25T17:49:37;5.43;;;1.83;;
65405;SDS011;52016;51.228;-2.322;2022-09-25T17:53:20;4.65;;;1.30;;
65405;SDS011;52016;51.228;-2.322;2022-09-25T17:57:04;1.92;;;1.00;;
65405;SDS011;52016;51.228;-2.322;2022-09-25T18:00:46;4.63;;;1.70;;
65405;SDS011;52016;51.228;-2.322;2022-09-25T18:04:28;6.30;;;1.50;;
65405;SDS011;52016;51.228;-2.322;2022-09-25T18:08:10;4.18;;;1.60;;
65405;SDS011;52016;51.228;-2.322;2022-09-25T18:11:53;2.20;;;1.40;;
65405;SDS011;52016;51.228;-2.322;2022-09-25T18:15:35;5.25;;;1.90;;
65405;SDS011;52016;51.228;-2.322;2022-09-25T18:19:21;3.30;;;1.80;;
65405;SDS011;52016;51.228;-2.322;2022-09-25T18:23:21;2.92;;;1.48;;
65405;SDS011;52016;51.228;-2.322;2022-09-25T18:27:03;4.55;;;1.70;;
65405;SDS011;52016;51.228;-2.322;2022-09-25T18:30:45;4.63;;;1.50;;
65405;SDS011;52016;51.228;-2.322;2022-09-25T18:34:27;5.00;;;1.30;;
65405;SDS011;52016;51.228;-2.322;2022-09-25T18:38:09;4.00;;;1.50;;
65405;SDS011;52016;51.228;-2.322;2022-09-25T18:41:51;5.93;;;2.20;;
65405;SDS011;52016;51.228;-2.322;2022-09-25T18:45:33;4.15;;;2.10;;
65405;SDS011;52016;51.228;-2.322;2022-09-25T18:49:15;5.95;;;2.05;;
65405;SDS011;52016;51.228;-2.322;2022-09-25T18:52:58;6.43;;;2.63;;
65405;SDS011;52016;51.228;-2.322;2022-09-25T18:56:41;3.92;;;1.80;;
65405;SDS011;52016;51.228;-2.322;2022-09-25T19:00:23;4.78;;;2.05;;
65405;SDS011;52016;51.228;-2.322;2022-09-25T19:04:04;3.50;;;1.58;;
65405;SDS011;52016;51.228;-2.322;2022-09-25T19:07:47;5.13;;;1.40;;
65405;SDS011;52016;51.228;-2.322;2022-09-25T19:11:29;5.80;;;2.10;;
65405;SDS011;52016;51.228;-2.322;2022-09-25T19:15:11;3.60;;;2.38;;
65405;SDS011;52016;51.228;-2.322;2022-09-25T19:18:53;3.97;;;2.13;;
65405;SDS011;52016;51.228;-2.322;2022-09-25T19:22:35;4.40;;;1.95;;
65405;SDS011;52016;51.228;-2.322;2022-09-25T19:26:18;5.85;;;1.60;;
65405;SDS011;52016;51.228;-2.322;2022-09-25T19:30:02;6.30;;;1.60;;
65405;SDS011;52016;51.228;-2.322;2022-09-25T19:33:44;4.15;;;1.80;;
65405;SDS011;52016;51.228;-2.322;2022-09-25T19:37:27;6.43;;;3.15;;
65405;SDS011;52016;51.228;-2.322;2022-09-25T19:41:14;5.15;;;2.25;;
65405;SDS011;52016;51.228;-2.322;2022-09-25T19:44:59;5.80;;;2.17;;
65405;SDS011;52016;51.228;-2.322;2022-09-25T19:48:42;3.80;;;1.95;;
65405;SDS011;52016;51.228;-2.322;2022-09-25T19:52:24;7.28;;;1.70;;
65405;SDS011;52016;51.228;-2.322;2022-09-25T19:56:07;7.55;;;2.78;;
65405;SDS011;52016;51.228;-2.322;2022-09-25T19:59:49;4.75;;;2.00;;
65405;SDS011;52016;51.228;-2.322;2022-09-25T20:03:31;4.10;;;2.35;;
65405;SDS011;52016;51.228;-2.322;2022-09-25T20:07:14;4.15;;;1.60;;
65405;SDS011;52016;51.228;-2.322;2022-09-25T20:10:56;6.00;;;1.85;;
65405;SDS011;52016;51.228;-2.322;2022-09-25T20:14:37;5.85;;;1.50;;
65405;SDS011;52016;51.228;-2.322;2022-09-25T20:18:19;5.97;;;1.90;;
65405;SDS011;52016;51.228;-2.322;2022-09-25T20:22:03;4.05;;;1.70;;
65405;SDS011;52016;51.228;-2.322;2022-09-25T20:25:45;3.50;;;1.58;;
65405;SDS011;52016;51.228;-2.322;2022-09-25T20:29:27;2.83;;;2.03;;
65405;SDS011;52016;51.228;-2.322;2022-09-25T20:33:09;4.55;;;2.42;;
65405;SDS011;52016;51.228;-2.322;2022-09-25T20:36:51;4.90;;;1.90;;
65405;SDS011;52016;51.228;-2.322;2022-09-25T20:40:32;7.88;;;1.92;;
65405;SDS011;52016;51.228;-2.322;2022-09-25T20:44:14;3.53;;;1.98;;
65405;SDS011;52016;51.228;-2.322;2022-09-25T20:47:56;5.38;;;2.05;;
65405;SDS011;52016;51.228;-2.322;2022-09-25T20:51:38;10.27;;;2.65;;
65405;SDS011;52016;51.228;-2.322;2022-09-25T20:55:21;8.38;;;2.22;;
65405;SDS011;52016;51.228;-2.322;2022-09-25T20:59:03;6.40;;;2.28;;
65405;SDS011;52016;51.228;-2.322;2022-09-25T21:02:45;5.30;;;2.10;;
65405;SDS011;52016;51.228;-2.322;2022-09-25T21:06:28;6.35;;;1.83;;
65405;SDS011;52016;51.228;-2.322;2022-09-25T21:10:14;7.13;;;2.00;;
65405;SDS011;52016;51.228;-2.322;2022-09-25T21:13:56;5.32;;;1.80;;
65405;SDS011;52016;51.228;-2.322;2022-09-25T21:17:40;5.97;;;2.20;;
65405;SDS011;52016;51.228;-2.322;2022-09-25T21:21:22;3.58;;;1.65;;
65405;SDS011;52016;51.228;-2.322;2022-09-25T21:25:05;4.20;;;1.67;;
65405;SDS011;52016;51.228;-2.322;2022-09-25T21:28:48;3.63;;;1.73;;
65405;SDS011;52016;51.228;-2.322;2022-09-25T21:32:33;3.58;;;2.10;;
65405;SDS011;52016;51.228;-2.322;2022-09-25T21:36:16;4.88;;;1.55;;
65405;SDS011;52016;51.228;-2.322;2022-09-25T21:39:57;5.30;;;1.95;;
65405;SDS011;52016;51.228;-2.322;2022-09-25T21:43:40;3.53;;;1.70;;
65405;SDS011;52016;51.228;-2.322;2022-09-25T21:47:22;5.35;;;1.75;;
65405;SDS011;52016;51.228;-2.322;2022-09-25T21:51:04;6.88;;;2.13;;
65405;SDS011;52016;51.228;-2.322;2022-09-25T21:54:48;3.45;;;1.60;;
65405;SDS011;52016;51.228;-2.322;2022-09-25T21:58:30;8.30;;;1.85;;
65405;SDS011;52016;51.228;-2.322;2022-09-25T22:02:12;3.25;;;1.60;;
65405;SDS011;52016;51.228;-2.322;2022-09-25T22:06:00;8.70;;;1.90;;
65405;SDS011;52016;51.228;-2.322;2022-09-25T22:09:44;3.75;;;1.65;;
65405;SDS011;52016;51.228;-2.322;2022-09-25T22:13:27;5.78;;;1.90;;
65405;SDS011;52016;51.228;-2.322;2022-09-25T22:17:10;4.97;;;1.60;;
65405;SDS011;52016;51.228;-2.322;2022-09-25T22:20:52;5.90;;;2.08;;
65405;SDS011;52016;51.228;-2.322;2022-09-25T22:24:34;5.45;;;1.75;;
65405;SDS011;52016;51.228;-2.322;2022-09-25T22:28:19;4.05;;;1.80;;
65405;SDS011;52016;51.228;-2.322;2022-09-25T22:32:01;5.45;;;1.80;;
65405;SDS011;52016;51.228;-2.322;2022-09-25T22:35:43;6.00;;;1.90;;
65405;SDS011;52016;51.228;-2.322;2022-09-25T22:39:26;3.35;;;1.80;;
65405;SDS011;52016;51.228;-2.322;2022-09-25T22:43:08;4.50;;;1.90;;
65405;SDS011;52016;51.228;-2.322;2022-09-25T22:46:50;5.05;;;1.77;;
65405;SDS011;52016;51.228;-2.322;2022-09-25T22:50:32;6.82;;;1.95;;
65405;SDS011;52016;51.228;-2.322;2022-09-25T22:54:14;4.00;;;1.50;;
65405;SDS011;52016;51.228;-2.322;2022-09-25T22:57:56;7.72;;;1.88;;
65405;SDS011;52016;51.228;-2.322;2022-09-25T23:01:42;4.07;;;1.80;;
65405;SDS011;52016;51.228;-2.322;2022-09-25T23:05:28;5.13;;;1.77;;
65405;SDS011;52016;51.228;-2.322;2022-09-25T23:09:11;4.65;;;1.85;;
65405;SDS011;52016;51.228;-2.322;2022-09-25T23:12:55;4.90;;;1.77;;
65405;SDS011;52016;51.228;-2.322;2022-09-25T23:16:37;6.38;;;1.52;;
65405;SDS011;52016;51.228;-2.322;2022-09-25T23:20:19;6.47;;;2.25;;
65405;SDS011;52016;51.228;-2.322;2022-09-25T23:24:01;4.15;;;2.00;;
65405;SDS011;52016;51.228;-2.322;2022-09-25T23:27:45;5.88;;;1.60;;
65405;SDS011;52016;51.228;-2.322;2022-09-25T23:31:27;2.75;;;1.50;;
65405;SDS011;52016;51.228;-2.322;2022-09-25T23:35:10;3.47;;;1.55;;
65405;SDS011;52016;51.228;-2.322;2022-09-25T23:38:53;4.45;;;1.30;;
65405;SDS011;52016;51.228;-2.322;2022-09-25T23:42:36;5.32;;;1.42;;
65405;SDS011;52016;51.228;-2.322;2022-09-25T23:46:19;7.50;;;1.80;;
65405;SDS011;52016;51.228;-2.322;2022-09-25T23:50:03;5.32;;;1.90;;
65405;SDS011;52016;51.228;-2.322;2022-09-25T23:53:45;4.80;;;1.50;;
65405;SDS011;52016;51.228;-2.322;2022-09-25T23:57:27;4.20;;;1.70;;
